createdAt,value
2018-06-25T00:00:51.924Z,22.98
2018-06-25T00:01:51.907Z,22.96
2018-06-25T00:02:51.964Z,23.01
2018-06-25T00:03:51.901Z,23.04
2018-06-25T00:04:51.943Z,22.98
2018-06-25T00:05:52.197Z,22.93
2018-06-25T00:06:53.029Z,22.95
2018-06-25T00:07:52.395Z,22.96
2018-06-25T00:08:51.857Z,22.99
2018-06-25T00:09:51.846Z,22.92
2018-06-25T00:10:51.813Z,23.04
2018-06-25T00:11:51.806Z,22.98
2018-06-25T00:12:51.791Z,22.95
2018-06-25T00:13:51.774Z,22.91
2018-06-25T00:14:51.759Z,22.92
2018-06-25T00:15:51.753Z,22.98
2018-06-25T00:16:51.753Z,22.92
2018-06-25T00:17:51.752Z,22.92
2018-06-25T00:18:51.756Z,22.96
2018-06-25T00:19:51.718Z,22.98
2018-06-25T00:20:51.758Z,22.93
2018-06-25T00:21:51.688Z,22.95
2018-06-25T00:22:51.676Z,22.99
2018-06-25T00:23:51.670Z,22.99
2018-06-25T00:24:51.679Z,22.96
2018-06-25T00:25:51.641Z,22.98
2018-06-25T00:26:51.629Z,22.96
2018-06-25T00:27:51.615Z,22.98
2018-06-25T00:28:51.610Z,22.99
2018-06-25T00:29:51.600Z,22.88
2018-06-25T00:30:51.593Z,22.96
2018-06-25T00:31:51.601Z,22.98
2018-06-25T00:32:51.564Z,22.95
2018-06-25T00:33:51.550Z,22.95
2018-06-25T00:34:51.538Z,22.99
2018-06-25T00:35:51.544Z,22.96
2018-06-25T00:36:51.551Z,22.99
2018-06-25T00:37:51.508Z,22.91
2018-06-25T00:38:51.503Z,22.92
2018-06-25T00:39:51.497Z,22.91
2018-06-25T00:40:51.490Z,22.93
2018-06-25T00:41:51.485Z,22.89
2018-06-25T00:42:51.758Z,22.96
2018-06-25T00:43:51.450Z,22.92
2018-06-25T00:44:51.434Z,22.89
2018-06-25T00:45:51.430Z,22.98
2018-06-25T00:46:51.408Z,22.92
2018-06-25T00:47:51.444Z,22.95
2018-06-25T00:48:51.395Z,22.91
2018-06-25T00:49:51.644Z,22.99
2018-06-25T00:50:51.385Z,22.98
2018-06-25T00:51:51.404Z,22.96
2018-06-25T00:52:51.348Z,22.91
2018-06-25T00:53:51.356Z,22.92
2018-06-25T00:54:51.361Z,22.89
2018-06-25T00:55:51.379Z,22.95
2018-06-25T00:56:51.304Z,22.93
2018-06-25T00:57:51.289Z,22.95
2018-06-25T00:58:51.308Z,22.92
2018-06-25T00:59:51.293Z,22.96
2018-06-25T01:00:51.271Z,22.96
2018-06-25T01:01:51.249Z,22.88
2018-06-25T01:02:51.248Z,22.91
2018-06-25T01:03:51.249Z,22.93
2018-06-25T01:04:51.221Z,22.98
2018-06-25T01:05:51.202Z,22.91
2018-06-25T01:06:51.192Z,22.96
2018-06-25T01:07:51.184Z,22.95
2018-06-25T01:08:51.228Z,22.96
2018-06-25T01:09:51.360Z,22.93
2018-06-25T01:10:51.159Z,22.91
2018-06-25T01:11:51.144Z,22.92
2018-06-25T01:12:51.147Z,22.89
2018-06-25T01:13:51.132Z,22.92
2018-06-25T01:14:51.146Z,22.89
2018-06-25T01:15:51.119Z,22.91
2018-06-25T01:16:51.093Z,22.96
2018-06-25T01:17:51.081Z,22.96
2018-06-25T01:18:51.084Z,22.96
2018-06-25T01:19:51.080Z,23.03
2018-06-25T01:20:51.044Z,22.96
2018-06-25T01:21:51.045Z,22.99
2018-06-25T01:22:51.024Z,22.91
2018-06-25T01:23:51.010Z,22.96
2018-06-25T01:24:50.997Z,22.92
2018-06-25T01:25:51.051Z,22.99
2018-06-25T01:26:50.978Z,22.91
2018-06-25T01:27:50.986Z,22.96
2018-06-25T01:28:50.978Z,22.96
2018-06-25T01:29:50.954Z,22.89
2018-06-25T01:30:50.935Z,22.95
2018-06-25T01:31:50.929Z,22.96
2018-06-25T01:32:50.924Z,23.04
2018-06-25T01:33:50.942Z,22.98
2018-06-25T01:34:50.894Z,22.93
2018-06-25T01:35:50.889Z,22.95
2018-06-25T01:36:50.891Z,22.96
2018-06-25T01:37:50.862Z,22.93
2018-06-25T01:38:50.874Z,22.96
2018-06-25T01:39:50.835Z,22.89
2018-06-25T01:40:50.844Z,22.93
2018-06-25T01:41:50.843Z,22.96
2018-06-25T01:42:50.810Z,22.93
2018-06-25T01:43:50.795Z,22.91
2018-06-25T01:44:50.806Z,22.92
2018-06-25T01:45:50.783Z,22.95
2018-06-25T01:46:50.769Z,22.96
2018-06-25T01:47:50.755Z,22.95
2018-06-25T01:48:50.768Z,22.95
2018-06-25T01:49:50.751Z,22.92
2018-06-25T01:50:50.755Z,22.98
2018-06-25T01:51:50.711Z,22.96
2018-06-25T01:52:50.757Z,22.92
2018-06-25T01:53:50.692Z,22.96
2018-06-25T01:54:50.701Z,22.91
2018-06-25T01:55:50.666Z,22.93
2018-06-25T01:56:50.665Z,22.93
2018-06-25T01:57:50.667Z,22.88
2018-06-25T01:58:50.638Z,22.96
2018-06-25T01:59:50.653Z,22.96
2018-06-25T02:00:50.612Z,22.98
2018-06-25T02:01:50.631Z,22.93
2018-06-25T02:02:50.597Z,22.89
2018-06-25T02:03:50.584Z,22.95
2018-06-25T02:04:50.611Z,22.95
2018-06-25T02:05:50.564Z,22.92
2018-06-25T02:06:50.548Z,22.89
2018-06-25T02:07:50.538Z,22.96
2018-06-25T02:08:50.525Z,22.92
2018-06-25T02:09:50.540Z,22.93
2018-06-25T02:10:50.507Z,22.91
2018-06-25T02:11:50.510Z,22.92
2018-06-25T02:12:50.487Z,22.93
2018-06-25T02:13:50.478Z,22.83
2018-06-25T02:14:50.503Z,22.89
2018-06-25T02:15:50.462Z,22.96
2018-06-25T02:16:50.456Z,22.92
2018-06-25T02:17:50.428Z,22.96
2018-06-25T02:18:50.420Z,22.89
2018-06-25T02:19:50.407Z,22.93
2018-06-25T02:20:50.417Z,22.92
2018-06-25T02:21:50.389Z,22.93
2018-06-25T02:22:50.496Z,22.89
2018-06-25T02:23:50.366Z,22.92
2018-06-25T02:24:50.360Z,22.85
2018-06-25T02:25:50.359Z,22.93
2018-06-25T02:26:50.333Z,22.85
2018-06-25T02:27:50.336Z,22.86
2018-06-25T02:28:50.329Z,22.92
2018-06-25T02:29:50.321Z,22.93
2018-06-25T02:30:50.331Z,22.91
2018-06-25T02:31:50.277Z,22.93
2018-06-25T02:32:50.280Z,22.92
2018-06-25T02:33:50.263Z,22.96
2018-06-25T02:34:50.247Z,22.93
2018-06-25T02:35:50.240Z,22.98
2018-06-25T02:36:50.235Z,22.88
2018-06-25T02:37:50.215Z,22.96
2018-06-25T02:38:50.203Z,22.88
2018-06-25T02:39:50.193Z,22.83
2018-06-25T02:40:50.181Z,22.91
2018-06-25T02:41:50.196Z,22.96
2018-06-25T02:42:50.163Z,22.91
2018-06-25T02:43:50.153Z,22.81
2018-06-25T02:44:50.165Z,22.81
2018-06-25T02:45:50.134Z,22.92
2018-06-25T02:46:50.165Z,22.98
2018-06-25T02:47:50.206Z,22.83
2018-06-25T02:48:50.108Z,22.80
2018-06-25T02:49:50.091Z,22.89
2018-06-25T02:50:50.092Z,22.89
2018-06-25T02:51:50.083Z,22.96
2018-06-25T02:52:50.059Z,22.95
2018-06-25T02:53:50.058Z,22.92
2018-06-25T02:54:50.039Z,22.98
2018-06-25T02:55:50.027Z,22.93
2018-06-25T02:56:50.016Z,22.91
2018-06-25T02:57:50.028Z,22.92
2018-06-25T02:58:49.994Z,22.85
2018-06-25T02:59:49.983Z,22.89
2018-06-25T03:00:50.022Z,22.88
2018-06-25T03:01:49.965Z,22.91
2018-06-25T03:02:50.029Z,22.93
2018-06-25T03:03:49.937Z,22.89
2018-06-25T03:04:50.015Z,22.81
2018-06-25T03:05:49.967Z,22.88
2018-06-25T03:06:49.968Z,22.86
2018-06-25T03:07:49.908Z,22.86
2018-06-25T03:08:49.894Z,22.80
2018-06-25T03:09:49.873Z,22.85
2018-06-25T03:10:49.883Z,22.80
2018-06-25T03:11:49.862Z,22.85
2018-06-25T03:12:49.837Z,22.91
2018-06-25T03:13:49.864Z,22.81
2018-06-25T03:14:49.826Z,22.91
2018-06-25T03:15:49.848Z,22.88
2018-06-25T03:16:49.799Z,22.88
2018-06-25T03:17:49.794Z,22.91
2018-06-25T03:18:49.780Z,22.85
2018-06-25T03:19:49.778Z,22.83
2018-06-25T03:20:49.756Z,22.89
2018-06-25T03:21:49.754Z,22.80
2018-06-25T03:22:49.751Z,22.91
2018-06-25T03:23:49.741Z,22.86
2018-06-25T03:24:49.722Z,22.88
2018-06-25T03:25:49.704Z,22.83
2018-06-25T03:26:49.688Z,22.88
2018-06-25T03:27:49.678Z,22.89
2018-06-25T03:28:49.670Z,22.86
2018-06-25T03:29:49.678Z,22.80
2018-06-25T03:30:49.651Z,22.89
2018-06-25T03:31:49.666Z,22.91
2018-06-25T03:32:49.675Z,22.88
2018-06-25T03:33:49.609Z,22.81
2018-06-25T03:34:49.632Z,22.80
2018-06-25T03:35:49.592Z,22.86
2018-06-25T03:36:49.582Z,22.83
2018-06-25T03:37:49.575Z,22.89
2018-06-25T03:38:49.570Z,22.80
2018-06-25T03:39:49.621Z,22.86
2018-06-25T03:40:49.542Z,22.88
2018-06-25T03:41:49.537Z,22.85
2018-06-25T03:42:49.515Z,22.83
2018-06-25T03:43:49.502Z,22.85
2018-06-25T03:44:49.556Z,22.86
2018-06-25T03:45:49.495Z,22.89
2018-06-25T03:46:49.476Z,22.92
2018-06-25T03:47:49.460Z,22.88
2018-06-25T03:48:49.473Z,22.88
2018-06-25T03:49:49.469Z,22.78
2018-06-25T03:50:49.427Z,22.85
2018-06-25T03:51:49.417Z,22.91
2018-06-25T03:52:49.429Z,22.86
2018-06-25T03:53:49.390Z,22.81
2018-06-25T03:54:49.389Z,22.86
2018-06-25T03:55:49.385Z,22.85
2018-06-25T03:56:49.361Z,22.85
2018-06-25T03:57:49.354Z,22.81
2018-06-25T03:58:49.342Z,22.83
2018-06-25T03:59:49.335Z,22.88
2018-06-25T04:00:49.352Z,22.81
2018-06-25T04:01:49.310Z,22.83
2018-06-25T04:02:49.323Z,22.89
2018-06-25T04:03:49.287Z,22.86
2018-06-25T04:04:49.295Z,22.89
2018-06-25T04:05:49.271Z,22.89
2018-06-25T04:06:49.273Z,22.85
2018-06-25T04:07:49.262Z,22.88
2018-06-25T04:08:49.226Z,22.81
2018-06-25T04:09:49.319Z,22.83
2018-06-25T04:10:49.249Z,22.88
2018-06-25T04:11:49.245Z,22.81
2018-06-25T04:12:49.195Z,22.83
2018-06-25T04:13:49.180Z,22.86
2018-06-25T04:14:49.173Z,22.88
2018-06-25T04:15:49.166Z,22.80
2018-06-25T04:16:49.148Z,22.81
2018-06-25T04:17:49.143Z,22.81
2018-06-25T04:18:49.125Z,22.89
2018-06-25T04:19:49.223Z,22.85
2018-06-25T04:20:49.198Z,22.78
2018-06-25T04:21:49.089Z,22.86
2018-06-25T04:22:49.108Z,22.85
2018-06-25T04:23:49.087Z,22.86
2018-06-25T04:24:49.067Z,22.78
2018-06-25T04:25:49.044Z,22.81
2018-06-25T04:26:49.041Z,22.86
2018-06-25T04:27:49.043Z,22.83
2018-06-25T04:28:49.083Z,22.91
2018-06-25T04:29:49.002Z,22.77
2018-06-25T04:30:49.041Z,22.85
2018-06-25T04:31:48.982Z,22.89
2018-06-25T04:32:48.969Z,22.86
2018-06-25T04:33:49.090Z,22.83
2018-06-25T04:34:48.948Z,22.85
2018-06-25T04:35:48.966Z,22.77
2018-06-25T04:36:48.925Z,22.85
2018-06-25T04:37:48.916Z,22.83
2018-06-25T04:38:48.910Z,22.83
2018-06-25T04:39:48.899Z,22.86
2018-06-25T04:40:48.903Z,22.85
2018-06-25T04:41:48.874Z,22.85
2018-06-25T04:42:48.873Z,22.85
2018-06-25T04:43:48.866Z,22.91
2018-06-25T04:44:48.835Z,22.91
2018-06-25T04:45:48.829Z,22.80
2018-06-25T04:46:48.825Z,22.83
2018-06-25T04:47:48.806Z,22.81
2018-06-25T04:48:48.827Z,22.81
2018-06-25T04:49:48.785Z,22.81
2018-06-25T04:50:48.774Z,22.89
2018-06-25T04:51:48.786Z,22.85
2018-06-25T04:52:48.744Z,22.86
2018-06-25T04:53:48.779Z,22.81
2018-06-25T04:54:48.727Z,22.83
2018-06-25T04:55:48.721Z,22.81
2018-06-25T04:56:48.723Z,22.81
2018-06-25T04:57:48.712Z,22.81
2018-06-25T04:58:48.675Z,22.89
2018-06-25T04:59:48.672Z,22.88
2018-06-25T05:00:48.695Z,22.86
2018-06-25T05:01:48.646Z,22.80
2018-06-25T05:02:48.636Z,22.83
2018-06-25T05:03:48.627Z,22.80
2018-06-25T05:04:48.634Z,22.77
2018-06-25T05:05:48.605Z,22.83
2018-06-25T05:06:48.585Z,22.80
2018-06-25T05:07:48.580Z,22.85
2018-06-25T05:08:48.596Z,22.81
2018-06-25T05:09:48.580Z,22.85
2018-06-25T05:10:48.545Z,22.85
2018-06-25T05:11:48.544Z,22.83
2018-06-25T05:12:48.522Z,22.83
2018-06-25T05:13:48.519Z,22.86
2018-06-25T05:14:48.528Z,22.81
2018-06-25T05:15:48.495Z,22.83
2018-06-25T05:16:48.495Z,22.86
2018-06-25T05:17:48.474Z,22.81
2018-06-25T05:18:48.538Z,22.88
2018-06-25T05:19:48.510Z,22.81
2018-06-25T05:20:48.447Z,22.80
2018-06-25T05:21:48.454Z,22.89
2018-06-25T05:22:48.432Z,22.85
2018-06-25T05:23:48.409Z,22.83
2018-06-25T05:24:48.486Z,22.85
2018-06-25T05:25:48.382Z,22.86
2018-06-25T05:26:48.369Z,22.76
2018-06-25T05:27:48.362Z,22.77
2018-06-25T05:28:48.388Z,22.81
2018-06-25T05:29:48.344Z,22.91
2018-06-25T05:30:48.323Z,22.83
2018-06-25T05:31:48.308Z,22.80
2018-06-25T05:32:48.299Z,22.81
2018-06-25T05:33:48.311Z,22.83
2018-06-25T05:34:48.295Z,22.81
2018-06-25T05:35:48.323Z,22.88
2018-06-25T05:36:48.270Z,22.78
2018-06-25T05:37:48.263Z,22.86
2018-06-25T05:38:48.228Z,22.83
2018-06-25T05:39:48.225Z,22.83
2018-06-25T05:40:48.229Z,22.83
2018-06-25T05:41:48.214Z,22.86
2018-06-25T05:42:48.196Z,22.83
2018-06-25T05:43:48.182Z,22.88
2018-06-25T05:44:48.164Z,22.81
2018-06-25T05:45:48.193Z,22.77
2018-06-25T05:46:48.153Z,22.80
2018-06-25T05:47:48.138Z,22.83
2018-06-25T05:48:48.134Z,22.86
2018-06-25T05:49:48.110Z,22.83
2018-06-25T05:50:48.095Z,22.85
2018-06-25T05:51:48.087Z,22.81
2018-06-25T05:52:48.077Z,22.83
2018-06-25T05:53:48.067Z,22.81
2018-06-25T05:54:48.064Z,22.85
2018-06-25T05:55:48.042Z,22.83
2018-06-25T05:56:48.056Z,22.85
2018-06-25T05:57:48.022Z,22.78
2018-06-25T05:58:48.015Z,22.83
2018-06-25T05:59:48.002Z,22.77
2018-06-25T06:00:48.020Z,22.81
2018-06-25T06:01:47.994Z,22.81
2018-06-25T06:02:48.034Z,22.83
2018-06-25T06:03:48.025Z,22.85
2018-06-25T06:04:48.016Z,22.81
2018-06-25T06:05:48.116Z,22.85
2018-06-25T06:06:48.210Z,22.85
2018-06-25T06:07:47.967Z,22.81
2018-06-25T06:08:47.913Z,22.83
2018-06-25T06:09:47.891Z,22.78
2018-06-25T06:10:47.879Z,22.86
2018-06-25T06:11:47.871Z,22.77
2018-06-25T06:12:47.864Z,22.88
2018-06-25T06:13:47.963Z,22.85
2018-06-25T06:14:47.945Z,22.86
2018-06-25T06:15:47.943Z,22.83
2018-06-25T06:16:47.857Z,22.77
2018-06-25T06:17:47.821Z,22.86
2018-06-25T06:18:47.802Z,22.81
2018-06-25T06:19:47.784Z,22.85
2018-06-25T06:20:47.821Z,22.81
2018-06-25T06:21:47.780Z,22.86
2018-06-25T06:22:47.773Z,22.83
2018-06-25T06:23:47.737Z,22.83
2018-06-25T06:24:47.742Z,22.85
2018-06-25T06:25:47.724Z,22.85
2018-06-25T06:26:47.750Z,22.80
2018-06-25T06:27:47.721Z,22.91
2018-06-25T06:28:47.810Z,22.80
2018-06-25T06:29:47.701Z,22.88
2018-06-25T06:30:47.662Z,22.83
2018-06-25T06:31:47.686Z,22.83
2018-06-25T06:32:47.684Z,22.80
2018-06-25T06:33:47.627Z,22.88
2018-06-25T06:34:47.608Z,22.86
2018-06-25T06:35:47.634Z,22.85
2018-06-25T06:36:47.589Z,22.89
2018-06-25T06:37:47.588Z,22.86
2018-06-25T06:38:47.591Z,22.83
2018-06-25T06:39:47.574Z,22.83
2018-06-25T06:40:47.615Z,22.85
2018-06-25T06:41:47.575Z,22.81
2018-06-25T06:42:47.547Z,22.81
2018-06-25T06:43:47.572Z,22.88
2018-06-25T06:44:47.540Z,22.91
2018-06-25T06:45:47.550Z,22.88
2018-06-25T06:46:47.481Z,22.83
2018-06-25T06:47:47.478Z,22.83
2018-06-25T06:48:47.487Z,22.81
2018-06-25T06:49:47.497Z,22.81
2018-06-25T06:50:47.443Z,22.80
2018-06-25T06:51:47.445Z,22.81
2018-06-25T06:52:47.425Z,22.81
2018-06-25T06:53:47.519Z,22.85
2018-06-25T06:54:47.418Z,22.81
2018-06-25T06:55:47.447Z,22.83
2018-06-25T06:56:47.392Z,22.77
2018-06-25T06:57:47.427Z,22.76
2018-06-25T06:58:47.354Z,22.80
2018-06-25T06:59:47.434Z,22.78
2018-06-25T07:00:47.334Z,22.86
2018-06-25T07:01:47.320Z,22.85
2018-06-25T07:02:47.315Z,22.80
2018-06-25T07:03:47.336Z,22.86
2018-06-25T07:04:47.322Z,22.81
2018-06-25T07:05:47.289Z,22.81
2018-06-25T07:06:47.267Z,22.86
2018-06-25T07:07:47.285Z,22.76
2018-06-25T07:08:47.243Z,22.86
2018-06-25T07:09:47.270Z,22.92
2018-06-25T07:10:47.236Z,22.85
2018-06-25T07:11:47.221Z,22.85
2018-06-25T07:12:47.226Z,22.91
2018-06-25T07:13:47.193Z,22.81
2018-06-25T07:14:47.198Z,22.85
2018-06-25T07:15:47.198Z,22.86
2018-06-25T07:16:47.187Z,22.91
2018-06-25T07:17:47.150Z,22.88
2018-06-25T07:18:47.136Z,22.86
2018-06-25T07:19:47.151Z,22.85
2018-06-25T07:20:47.164Z,22.85
2018-06-25T07:21:47.106Z,22.85
2018-06-25T07:22:47.142Z,22.85
2018-06-25T07:23:47.101Z,22.81
2018-06-25T07:24:47.091Z,22.83
2018-06-25T07:25:47.067Z,22.89
2018-06-25T07:26:47.047Z,22.85
2018-06-25T07:27:47.038Z,22.86
2018-06-25T07:28:47.032Z,22.89
2018-06-25T07:29:47.088Z,22.86
2018-06-25T07:30:47.058Z,22.86
2018-06-25T07:31:46.994Z,22.80
2018-06-25T07:32:46.987Z,22.86
2018-06-25T07:33:46.988Z,22.85
2018-06-25T07:34:47.014Z,22.88
2018-06-25T07:35:46.959Z,22.91
2018-06-25T07:36:46.945Z,22.91
2018-06-25T07:37:46.938Z,22.93
2018-06-25T07:38:46.945Z,22.80
2018-06-25T07:39:47.221Z,22.86
2018-06-25T07:40:46.904Z,22.86
2018-06-25T07:41:46.899Z,22.80
2018-06-25T07:42:46.894Z,22.80
2018-06-25T07:43:46.879Z,22.88
2018-06-25T07:44:46.886Z,22.77
2018-06-25T07:45:46.848Z,22.85
2018-06-25T07:46:46.834Z,22.86
2018-06-25T07:47:46.829Z,22.93
2018-06-25T07:48:46.833Z,22.86
2018-06-25T07:49:46.809Z,22.88
2018-06-25T07:50:46.794Z,22.88
2018-06-25T07:51:46.791Z,22.83
2018-06-25T07:52:46.803Z,22.81
2018-06-25T07:53:46.762Z,22.88
2018-06-25T07:54:46.769Z,22.88
2018-06-25T07:55:46.801Z,22.85
2018-06-25T07:56:46.750Z,22.85
2018-06-25T07:57:46.827Z,22.78
2018-06-25T07:58:46.706Z,22.89
2018-06-25T07:59:46.733Z,22.86
2018-06-25T08:00:46.686Z,22.83
2018-06-25T08:01:46.697Z,22.91
2018-06-25T08:02:46.752Z,22.81
2018-06-25T08:03:46.691Z,22.81
2018-06-25T08:04:46.731Z,22.81
2018-06-25T08:05:46.643Z,22.85
2018-06-25T08:06:46.641Z,22.83
2018-06-25T08:07:46.629Z,22.88
2018-06-25T08:08:46.600Z,22.85
2018-06-25T08:09:46.657Z,22.88
2018-06-25T08:10:46.603Z,22.92
2018-06-25T08:11:46.613Z,22.86
2018-06-25T08:12:46.553Z,22.85
2018-06-25T08:13:46.542Z,22.88
2018-06-25T08:14:46.548Z,22.85
2018-06-25T08:15:46.633Z,22.98
2018-06-25T08:16:46.667Z,22.89
2018-06-25T08:17:46.788Z,22.92
2018-06-25T08:18:46.614Z,22.93
2018-06-25T08:19:46.503Z,22.86
2018-06-25T08:20:46.475Z,22.89
2018-06-25T08:21:46.489Z,22.95
2018-06-25T08:22:46.476Z,22.96
2018-06-25T08:23:46.436Z,22.88
2018-06-25T08:24:46.420Z,22.93
2018-06-25T08:25:47.245Z,22.86
2018-06-25T08:26:46.442Z,22.83
2018-06-25T08:27:46.720Z,22.89
2018-06-25T08:28:46.379Z,22.88
2018-06-25T08:29:46.596Z,22.89
2018-06-25T08:30:46.407Z,22.83
2018-06-25T08:31:46.359Z,22.81
2018-06-25T08:32:47.292Z,22.78
2018-06-25T08:33:46.403Z,22.88
2018-06-25T08:34:46.391Z,22.80
2018-06-25T08:35:46.317Z,22.81
2018-06-25T08:36:46.327Z,22.85
2018-06-25T08:37:46.326Z,22.89
2018-06-25T08:38:46.319Z,22.83
2018-06-25T08:39:46.323Z,22.83
2018-06-25T08:40:46.255Z,22.85
2018-06-25T08:41:46.358Z,22.85
2018-06-25T08:42:46.283Z,22.88
2018-06-25T08:43:46.789Z,22.86
2018-06-25T08:44:46.269Z,23.04
2018-06-25T08:45:46.333Z,23.18
2018-06-25T08:46:46.201Z,23.21
2018-06-25T08:47:46.191Z,23.15
2018-06-25T08:48:46.207Z,23.17
2018-06-25T08:49:46.156Z,23.11
2018-06-25T08:50:46.147Z,23.06
2018-06-25T08:51:46.250Z,23.10
2018-06-25T08:52:46.122Z,23.11
2018-06-25T08:53:46.134Z,23.07
2018-06-25T08:54:46.109Z,23.06
2018-06-25T08:55:46.122Z,23.03
2018-06-25T08:56:46.121Z,23.01
2018-06-25T08:57:46.082Z,23.03
2018-06-25T08:58:46.060Z,23.06
2018-06-25T08:59:46.079Z,23.04
2018-06-25T09:00:46.070Z,22.99
2018-06-25T09:01:46.052Z,22.95
2018-06-25T09:02:46.138Z,22.98
2018-06-25T09:03:46.051Z,22.98
2018-06-25T09:04:46.041Z,22.99
2018-06-25T09:05:46.011Z,23.01
2018-06-25T09:06:45.974Z,23.03
2018-06-25T09:07:46.062Z,23.04
2018-06-25T09:08:45.956Z,22.99
2018-06-25T09:09:46.023Z,22.99
2018-06-25T09:10:45.934Z,22.99
2018-06-25T09:11:45.943Z,23.01
2018-06-25T09:12:45.949Z,22.98
2018-06-25T09:13:45.959Z,22.98
2018-06-25T09:14:45.927Z,22.99
2018-06-25T09:15:45.897Z,22.95
2018-06-25T09:16:45.864Z,22.92
2018-06-25T09:17:45.952Z,22.99
2018-06-25T09:18:45.873Z,22.95
2018-06-25T09:19:46.304Z,22.98
2018-06-25T09:20:45.819Z,22.98
2018-06-25T09:21:45.814Z,23.01
2018-06-25T09:22:45.849Z,23.01
2018-06-25T09:23:45.788Z,23.04
2018-06-25T09:24:45.786Z,23.06
2018-06-25T09:25:45.838Z,23.01
2018-06-25T09:26:45.805Z,23.01
2018-06-25T09:27:45.811Z,22.99
2018-06-25T09:28:45.742Z,23.03
2018-06-25T09:29:45.727Z,22.98
2018-06-25T09:30:46.258Z,23.03
2018-06-25T09:31:45.702Z,22.92
2018-06-25T09:32:45.713Z,23.01
2018-06-25T09:33:45.697Z,22.99
2018-06-25T09:34:45.688Z,22.95
2018-06-25T09:35:45.762Z,22.96
2018-06-25T09:36:45.653Z,22.93
2018-06-25T09:37:46.202Z,22.91
2018-06-25T09:38:45.628Z,22.95
2018-06-25T09:39:45.643Z,22.96
2018-06-25T09:40:45.695Z,22.86
2018-06-25T09:41:45.893Z,22.92
2018-06-25T09:42:45.585Z,22.89
2018-06-25T09:43:45.587Z,22.85
2018-06-25T09:44:45.574Z,22.92
2018-06-25T09:45:45.573Z,22.85
2018-06-25T09:46:45.551Z,22.88
2018-06-25T09:47:45.537Z,22.80
2018-06-25T09:48:45.532Z,22.85
2018-06-25T09:49:45.523Z,22.89
2018-06-25T09:50:45.504Z,22.89
2018-06-25T09:51:45.578Z,22.85
2018-06-25T09:52:45.541Z,22.83
2018-06-25T09:53:45.474Z,22.85
2018-06-25T09:54:45.570Z,22.91
2018-06-25T09:55:45.451Z,22.93
2018-06-25T09:56:45.512Z,22.91
2018-06-25T09:57:45.559Z,22.93
2018-06-25T09:58:45.443Z,22.88
2018-06-25T09:59:45.528Z,22.89
2018-06-25T10:00:45.534Z,22.85
2018-06-25T10:01:45.516Z,22.91
2018-06-25T10:02:45.545Z,22.96
2018-06-25T10:03:45.507Z,22.83
2018-06-25T10:04:46.236Z,22.91
2018-06-25T10:05:45.700Z,22.85
2018-06-25T10:06:45.444Z,22.89
2018-06-25T10:07:45.584Z,22.88
2018-06-25T10:08:46.234Z,22.86
2018-06-25T10:09:45.306Z,22.89
2018-06-25T10:10:45.956Z,22.95
2018-06-25T10:11:45.295Z,22.85
2018-06-25T10:12:45.283Z,22.85
2018-06-25T10:13:45.298Z,22.88
2018-06-25T10:14:45.771Z,22.89
2018-06-25T10:15:45.387Z,22.81
2018-06-25T10:16:45.225Z,22.92
2018-06-25T10:17:45.224Z,22.89
2018-06-25T10:18:45.231Z,22.93
2018-06-25T10:19:45.253Z,22.93
2018-06-25T10:20:45.520Z,22.92
2018-06-25T10:21:45.260Z,22.93
2018-06-25T10:22:45.242Z,22.93
2018-06-25T10:23:45.162Z,22.93
2018-06-25T10:24:45.139Z,22.96
2018-06-25T10:25:45.131Z,22.95
2018-06-25T10:26:45.122Z,22.96
2018-06-25T10:27:45.124Z,22.96
2018-06-25T10:28:45.117Z,22.89
2018-06-25T10:29:45.145Z,22.88
2018-06-25T10:30:45.081Z,22.93
2018-06-25T10:31:45.139Z,22.98
2018-06-25T10:32:45.089Z,22.95
2018-06-25T10:33:45.310Z,22.93
2018-06-25T10:34:45.219Z,22.88
2018-06-25T10:35:45.123Z,22.86
2018-06-25T10:36:45.024Z,22.85
2018-06-25T10:37:45.036Z,22.85
2018-06-25T10:38:45.030Z,22.86
2018-06-25T10:39:44.994Z,22.86
2018-06-25T10:40:44.972Z,22.86
2018-06-25T10:41:44.969Z,22.89
2018-06-25T10:42:45.191Z,22.95
2018-06-25T10:43:44.951Z,22.95
2018-06-25T10:44:44.928Z,22.96
2018-06-25T10:45:44.919Z,22.93
2018-06-25T10:46:44.903Z,22.89
2018-06-25T10:47:44.895Z,22.89
2018-06-25T10:48:44.905Z,22.86
2018-06-25T10:49:44.906Z,22.96
2018-06-25T10:50:44.887Z,22.92
2018-06-25T10:51:44.861Z,22.95
2018-06-25T10:52:44.863Z,22.95
2018-06-25T10:53:44.885Z,22.93
2018-06-25T10:54:44.851Z,22.95
2018-06-25T10:55:44.808Z,22.96
2018-06-25T10:56:44.822Z,22.92
2018-06-25T10:57:44.806Z,22.91
2018-06-25T10:58:44.837Z,22.92
2018-06-25T10:59:45.016Z,22.92
2018-06-25T11:00:44.758Z,22.95
2018-06-25T11:01:44.750Z,22.96
2018-06-25T11:02:44.739Z,22.92
2018-06-25T11:03:44.749Z,22.95
2018-06-25T11:04:44.718Z,22.98
2018-06-25T11:05:44.706Z,22.98
2018-06-25T11:06:44.693Z,23.01
2018-06-25T11:07:44.879Z,22.91
2018-06-25T11:08:44.709Z,22.89
2018-06-25T11:09:44.666Z,22.96
2018-06-25T11:10:44.697Z,22.91
2018-06-25T11:11:44.654Z,22.95
2018-06-25T11:12:44.752Z,22.96
2018-06-25T11:13:44.668Z,22.89
2018-06-25T11:14:44.673Z,22.91
2018-06-25T11:15:44.603Z,22.89
2018-06-25T11:16:44.607Z,22.92
2018-06-25T11:17:44.608Z,22.95
2018-06-25T11:18:44.676Z,22.98
2018-06-25T11:19:44.558Z,22.96
2018-06-25T11:20:44.585Z,22.98
2018-06-25T11:21:44.641Z,22.95
2018-06-25T11:22:44.561Z,22.99
2018-06-25T11:23:44.517Z,22.92
2018-06-25T11:24:44.508Z,22.89
2018-06-25T11:25:44.497Z,22.91
2018-06-25T11:26:44.496Z,22.98
2018-06-25T11:27:44.531Z,22.96
2018-06-25T11:28:44.460Z,22.98
2018-06-25T11:29:44.460Z,22.95
2018-06-25T11:30:44.449Z,23.01
2018-06-25T11:31:44.452Z,22.99
2018-06-25T11:32:44.425Z,22.95
2018-06-25T11:33:44.420Z,22.83
2018-06-25T11:34:44.405Z,22.93
2018-06-25T11:35:44.416Z,22.95
2018-06-25T11:36:44.378Z,22.92
2018-06-25T11:37:44.391Z,22.96
2018-06-25T11:38:44.445Z,22.92
2018-06-25T11:39:44.403Z,22.89
2018-06-25T11:40:44.358Z,22.92
2018-06-25T11:41:44.356Z,22.96
2018-06-25T11:42:44.396Z,22.98
2018-06-25T11:43:44.370Z,22.93
2018-06-25T11:44:44.321Z,22.92
2018-06-25T11:45:44.286Z,22.96
2018-06-25T11:46:44.292Z,22.92
2018-06-25T11:47:44.276Z,22.98
2018-06-25T11:48:44.340Z,22.93
2018-06-25T11:49:44.285Z,22.96
2018-06-25T11:50:44.253Z,22.96
2018-06-25T11:51:44.327Z,22.89
2018-06-25T11:52:44.255Z,22.98
2018-06-25T11:53:44.300Z,22.95
2018-06-25T11:54:44.213Z,22.92
2018-06-25T11:55:44.183Z,22.93
2018-06-25T11:56:44.171Z,22.92
2018-06-25T11:57:44.161Z,22.93
2018-06-25T11:58:44.143Z,22.89
2018-06-25T11:59:44.134Z,22.91
2018-06-25T12:00:44.121Z,22.91
2018-06-25T12:01:44.148Z,22.95
2018-06-25T12:02:44.358Z,22.93
2018-06-25T12:03:44.166Z,22.91
2018-06-25T12:04:44.120Z,22.95
2018-06-25T12:05:44.070Z,22.95
2018-06-25T12:06:44.121Z,23.01
2018-06-25T12:07:44.063Z,22.93
2018-06-25T12:08:44.046Z,22.96
2018-06-25T12:09:44.043Z,22.95
2018-06-25T12:10:44.184Z,22.98
2018-06-25T12:11:44.063Z,22.96
2018-06-25T12:12:44.005Z,22.91
2018-06-25T12:13:44.043Z,22.96
2018-06-25T12:14:43.984Z,22.93
2018-06-25T12:15:43.990Z,22.93
2018-06-25T12:16:43.981Z,22.91
2018-06-25T12:17:43.977Z,22.92
2018-06-25T12:18:43.927Z,22.96
2018-06-25T12:19:43.928Z,22.96
2018-06-25T12:20:43.942Z,22.91
2018-06-25T12:21:43.898Z,22.95
2018-06-25T12:22:43.884Z,22.98
2018-06-25T12:23:43.872Z,22.91
2018-06-25T12:24:43.868Z,23.01
2018-06-25T12:25:43.858Z,23.01
2018-06-25T12:26:43.865Z,22.98
2018-06-25T12:27:43.876Z,22.95
2018-06-25T12:28:43.822Z,23.01
2018-06-25T12:29:43.820Z,22.95
2018-06-25T12:30:43.803Z,22.99
2018-06-25T12:31:43.812Z,22.95
2018-06-25T12:32:43.856Z,22.95
2018-06-25T12:33:43.767Z,22.99
2018-06-25T12:34:43.949Z,22.96
2018-06-25T12:35:43.751Z,22.95
2018-06-25T12:36:44.022Z,22.92
2018-06-25T12:37:43.785Z,22.98
2018-06-25T12:38:43.717Z,22.93
2018-06-25T12:39:43.731Z,23.01
2018-06-25T12:40:43.713Z,22.93
2018-06-25T12:41:43.737Z,22.96
2018-06-25T12:42:43.691Z,22.99
2018-06-25T12:43:43.661Z,22.93
2018-06-25T12:44:43.655Z,22.99
2018-06-25T12:45:43.640Z,22.93
2018-06-25T12:46:43.672Z,22.96
2018-06-25T12:47:43.656Z,22.96
2018-06-25T12:48:43.605Z,22.98
2018-06-25T12:49:43.592Z,22.95
2018-06-25T12:50:43.605Z,22.93
2018-06-25T12:51:43.571Z,22.93
2018-06-25T12:52:43.566Z,22.98